createdAt,value
2023-01-30T00:01:02.384Z,101319.22
2023-01-30T00:03:28.854Z,101319.09
2023-01-30T00:05:55.877Z,101326.84
2023-01-30T00:08:22.567Z,101296.06
2023-01-30T00:10:49.247Z,101318.50
2023-01-30T00:13:16.130Z,101302.00
2023-01-30T00:15:43.371Z,101309.13
2023-01-30T00:18:10.103Z,101309.00
2023-01-30T00:20:36.513Z,101299.09
2023-01-30T00:23:02.988Z,101270.19
2023-01-30T00:25:29.573Z,101266.38
2023-01-30T00:27:56.538Z,101261.16
2023-01-30T00:30:22.927Z,101267.38
2023-01-30T00:32:54.418Z,101265.69
2023-01-30T00:35:20.722Z,101273.63
2023-01-30T00:37:47.020Z,101253.50
2023-01-30T00:40:13.488Z,101241.88
2023-01-30T00:42:58.621Z,101213.03
2023-01-30T00:45:43.427Z,101218.25
2023-01-30T00:48:09.755Z,101199.84
2023-01-30T00:50:45.212Z,101214.09
2023-01-30T00:53:13.339Z,101219.59
2023-01-30T00:55:40.491Z,101216.78
2023-01-30T00:58:06.916Z,101222.81
2023-01-30T01:00:33.629Z,101225.44
2023-01-30T01:03:00.204Z,101233.03
2023-01-30T01:09:26.341Z,101245.66
2023-01-30T01:11:52.688Z,101222.59
2023-01-30T01:14:19.036Z,101224.97
2023-01-30T01:16:45.483Z,101215.47
2023-01-30T01:19:11.774Z,101230.47
2023-01-30T01:21:38.093Z,101218.97
2023-01-30T01:24:04.616Z,101210.63
2023-01-30T01:26:31.039Z,101219.69
2023-01-30T01:28:58.751Z,101206.47
2023-01-30T01:31:25.857Z,101196.94
2023-01-30T01:33:52.607Z,101181.88
2023-01-30T01:36:42.534Z,101186.00
2023-01-30T01:39:05.621Z,101192.88
2023-01-30T01:41:32.004Z,101187.75
2023-01-30T01:44:10.344Z,101187.44
2023-01-30T01:46:58.015Z,101183.09
2023-01-30T01:49:35.576Z,101184.09
2023-01-30T01:52:07.307Z,101182.38
2023-01-30T01:54:44.914Z,101183.78
2023-01-30T01:57:18.129Z,101179.38
2023-01-30T01:59:50.039Z,101173.91
2023-01-30T02:02:17.074Z,101158.81
2023-01-30T02:05:04.961Z,101145.66
2023-01-30T02:07:45.757Z,101149.09
2023-01-30T02:10:20.817Z,101143.94
2023-01-30T02:12:48.089Z,101141.25
2023-01-30T02:15:15.292Z,101139.53
2023-01-30T02:17:41.900Z,101121.75
2023-01-30T02:20:28.335Z,101123.41
2023-01-30T02:23:10.012Z,101108.53
2023-01-30T02:25:48.508Z,101118.03
2023-01-30T02:28:34.328Z,101134.81
2023-01-30T02:31:22.925Z,101132.31
2023-01-30T02:34:10.761Z,101128.75
2023-01-30T02:37:22.233Z,101127.81
2023-01-30T02:40:17.778Z,101122.53
2023-01-30T02:43:12.957Z,101127.97
2023-01-30T02:46:02.192Z,101129.69
2023-01-30T02:48:39.994Z,101121.91
2023-01-30T02:51:13.605Z,101114.00
2023-01-30T02:53:40.149Z,101111.41
2023-01-30T02:56:06.775Z,101113.09
2023-01-30T02:58:41.512Z,101113.13
2023-01-30T03:01:58.504Z,101117.63
2023-01-30T03:04:39.597Z,101114.88
2023-01-30T03:07:05.938Z,101119.25
2023-01-30T03:09:51.160Z,101121.91
2023-01-30T03:12:31.406Z,101120.03
2023-01-30T03:15:11.506Z,101109.63
2023-01-30T03:17:43.595Z,101109.78
2023-01-30T03:20:10.649Z,101125.56
2023-01-30T03:22:36.959Z,101115.78
2023-01-30T03:25:03.606Z,101113.97
2023-01-30T03:27:30.344Z,101126.31
2023-01-30T03:29:56.677Z,101111.19
2023-01-30T03:32:22.996Z,101098.78
2023-01-30T03:34:49.349Z,101109.09
2023-01-30T03:37:15.754Z,101103.94
2023-01-30T03:39:42.260Z,101118.06
2023-01-30T03:42:09.041Z,101111.81
2023-01-30T03:44:35.352Z,101092.16
2023-01-30T03:47:01.760Z,101083.38
2023-01-30T03:49:28.161Z,101094.03
2023-01-30T03:51:54.513Z,101081.88
2023-01-30T03:54:20.960Z,101073.81
2023-01-30T03:56:47.313Z,101078.09
2023-01-30T03:59:13.612Z,101069.59
2023-01-30T04:01:40.010Z,101081.88
2023-01-30T04:04:06.383Z,101070.47
2023-01-30T04:06:32.737Z,101078.56
2023-01-30T04:08:59.046Z,101074.28
2023-01-30T04:11:25.406Z,101063.81
2023-01-30T04:13:51.719Z,101047.72
2023-01-30T04:16:24.547Z,101039.84
2023-01-30T04:18:51.355Z,101042.44
2023-01-30T04:21:18.433Z,101045.94
2023-01-30T04:23:44.948Z,101034.34
2023-01-30T04:26:12.179Z,101029.91
2023-01-30T04:28:38.584Z,101031.38
2023-01-30T04:31:05.387Z,101036.44
2023-01-30T04:33:35.200Z,101029.44
2023-01-30T04:36:03.248Z,101037.44
2023-01-30T04:38:31.398Z,101028.53
2023-01-30T04:40:58.635Z,101020.50
2023-01-30T04:43:26.749Z,101010.72
2023-01-30T04:45:53.589Z,101009.50
2023-01-30T04:48:21.309Z,100999.78
2023-01-30T04:50:49.317Z,100989.28
2023-01-30T04:53:16.711Z,100979.19
2023-01-30T04:55:43.413Z,100976.22
2023-01-30T04:58:10.008Z,100975.16
2023-01-30T05:00:36.440Z,100976.03
2023-01-30T05:03:02.870Z,100970.75
2023-01-30T05:05:29.284Z,100964.22
2023-01-30T05:07:55.632Z,100975.75
2023-01-30T05:10:21.968Z,100970.44
2023-01-30T05:12:50.272Z,100969.59
2023-01-30T05:15:17.205Z,100971.03
2023-01-30T05:17:44.763Z,100966.63
2023-01-30T05:20:13.478Z,100967.41
2023-01-30T05:22:40.065Z,100959.34
2023-01-30T05:25:07.092Z,100965.25
2023-01-30T05:27:33.424Z,100965.25
2023-01-30T05:29:59.708Z,100947.38
2023-01-30T05:32:27.246Z,100945.66
2023-01-30T05:34:53.557Z,100948.09
2023-01-30T05:37:19.859Z,100938.38
2023-01-30T05:39:46.185Z,100928.94
2023-01-30T05:42:12.453Z,100916.63
2023-01-30T05:44:38.740Z,100912.22
2023-01-30T05:47:05.106Z,100919.41
2023-01-30T05:49:31.562Z,100918.53
2023-01-30T05:51:58.099Z,100924.56
2023-01-30T05:54:24.440Z,100914.84
2023-01-30T05:56:51.200Z,100908.63
2023-01-30T05:59:18.583Z,100906.66
2023-01-30T06:01:44.956Z,100900.28
2023-01-30T06:04:11.385Z,100909.91
2023-01-30T06:06:37.907Z,100919.78
2023-01-30T06:09:04.628Z,100923.28
2023-01-30T06:11:31.015Z,100921.59
2023-01-30T06:13:57.354Z,100924.34
2023-01-30T06:16:23.844Z,100921.66
2023-01-30T06:18:50.240Z,100920.81
2023-01-30T06:21:16.833Z,100929.44
2023-01-30T06:23:43.404Z,100938.38
2023-01-30T06:26:10.166Z,100930.22
2023-01-30T06:28:36.681Z,100923.81
2023-01-30T06:31:05.321Z,100910.66
2023-01-30T06:33:31.712Z,100918.50
2023-01-30T06:35:58.042Z,100921.78
2023-01-30T06:38:26.097Z,100919.22
2023-01-30T06:40:52.532Z,100934.56
2023-01-30T06:43:18.829Z,100937.91
2023-01-30T06:45:45.133Z,100934.78
2023-01-30T06:48:11.504Z,100938.06
2023-01-30T06:50:37.984Z,100935.63
2023-01-30T06:53:06.280Z,100924.66
2023-01-30T06:55:36.898Z,100934.88
2023-01-30T06:58:07.914Z,100933.03
2023-01-30T07:00:34.751Z,100923.88
2023-01-30T07:03:01.097Z,100938.09
2023-01-30T07:05:28.940Z,100930.56
2023-01-30T07:07:55.498Z,100931.59
2023-01-30T07:10:21.936Z,100947.25
2023-01-30T07:12:48.305Z,100947.88
2023-01-30T07:15:14.912Z,100956.56
2023-01-30T07:17:41.860Z,100946.19
2023-01-30T07:20:11.724Z,100957.53
2023-01-30T07:22:38.192Z,100971.44
2023-01-30T07:25:05.355Z,100961.97
2023-01-30T07:27:31.990Z,100981.00
2023-01-30T07:29:58.379Z,100950.97
2023-01-30T07:32:25.060Z,100937.75
2023-01-30T07:34:51.359Z,100955.28
2023-01-30T07:37:17.732Z,100956.13
2023-01-30T07:39:44.125Z,100945.56
2023-01-30T07:42:10.480Z,100938.41
2023-01-30T07:44:36.876Z,100942.06
2023-01-30T07:47:03.393Z,100947.47
2023-01-30T07:49:29.852Z,100962.47
2023-01-30T07:51:56.163Z,100971.28
2023-01-30T07:54:22.625Z,100964.06
2023-01-30T07:56:49.028Z,100948.03
2023-01-30T07:59:15.335Z,100968.34
2023-01-30T08:01:41.657Z,100962.88
2023-01-30T08:04:11.746Z,100947.84
2023-01-30T08:06:39.486Z,100956.56
2023-01-30T08:09:06.903Z,100952.28
2023-01-30T08:11:33.718Z,100944.19
2023-01-30T08:14:00.155Z,100954.69
2023-01-30T08:16:26.620Z,100942.13
2023-01-30T08:18:52.997Z,100928.81
2023-01-30T08:21:19.350Z,100930.59
2023-01-30T08:23:45.805Z,100920.72
2023-01-30T08:26:12.176Z,100925.06
2023-01-30T08:28:39.429Z,100927.72
2023-01-30T08:31:10.112Z,100914.34
2023-01-30T08:33:36.671Z,100915.22
2023-01-30T08:36:03.080Z,100923.16
2023-01-30T08:38:29.409Z,100933.66
2023-01-30T08:40:57.831Z,100929.91
2023-01-30T08:43:24.409Z,100907.28
2023-01-30T08:45:53.540Z,100921.94
2023-01-30T08:48:19.892Z,100921.78
2023-01-30T08:50:46.257Z,100934.00
2023-01-30T08:53:12.608Z,100917.72
2023-01-30T08:55:38.924Z,100903.50
2023-01-30T08:58:05.290Z,100908.56
2023-01-30T09:00:31.659Z,100884.72
2023-01-30T09:02:58.264Z,100888.88
2023-01-30T09:05:25.198Z,100886.16
2023-01-30T09:07:51.602Z,100890.03
2023-01-30T09:10:19.051Z,100888.63
2023-01-30T09:12:46.470Z,100884.34
2023-01-30T09:15:13.044Z,100877.19
2023-01-30T09:17:39.448Z,100876.16
2023-01-30T09:20:09.796Z,100879.38
2023-01-30T09:22:36.760Z,100883.66
2023-01-30T09:25:03.642Z,100865.66
2023-01-30T09:27:30.125Z,100872.50
2023-01-30T09:29:56.639Z,100872.34
2023-01-30T09:32:23.305Z,100884.53
2023-01-30T09:34:49.765Z,100881.72
2023-01-30T09:37:16.169Z,100882.09
2023-01-30T09:39:42.494Z,100891.44
2023-01-30T09:42:33.460Z,100873.44
2023-01-30T09:45:26.707Z,100887.38
2023-01-30T09:48:18.000Z,100873.78
2023-01-30T09:50:44.633Z,100880.56
2023-01-30T09:53:30.629Z,100876.97
2023-01-30T09:56:00.260Z,100888.09
2023-01-30T09:58:37.550Z,100891.59
2023-01-30T10:01:16.822Z,100886.06
2023-01-30T10:04:06.246Z,100894.25
2023-01-30T10:06:41.763Z,100882.28
2023-01-30T10:09:14.003Z,100880.22
2023-01-30T10:12:08.588Z,100883.56
2023-01-30T10:14:46.030Z,100889.56
2023-01-30T10:17:31.514Z,100878.75
2023-01-30T10:20:44.383Z,100870.56
2023-01-30T10:23:30.351Z,100863.16
2023-01-30T10:25:59.692Z,100855.31
2023-01-30T10:28:30.482Z,100865.81
2023-01-30T10:31:04.494Z,100869.19
2023-01-30T10:33:46.618Z,100844.13
2023-01-30T10:36:18.628Z,100839.91
2023-01-30T10:38:50.942Z,100837.03
2023-01-30T10:41:33.260Z,100839.50
2023-01-30T10:44:02.603Z,100822.94
2023-01-30T10:46:39.728Z,100837.03
2023-01-30T10:49:13.550Z,100839.53
2023-01-30T10:51:46.489Z,100844.63
2023-01-30T10:54:28.821Z,100842.91
2023-01-30T10:57:13.629Z,100838.72
2023-01-30T11:00:06.493Z,100842.66
2023-01-30T11:02:54.050Z,100844.16
2023-01-30T11:05:56.301Z,100837.75
2023-01-30T11:08:28.856Z,100836.44
2023-01-30T11:10:56.982Z,100828.25
2023-01-30T11:13:30.265Z,100821.84
2023-01-30T11:16:06.514Z,100817.63
2023-01-30T11:19:17.722Z,100815.44
2023-01-30T11:21:26.987Z,100808.63
2023-01-30T11:24:04.518Z,100811.41
2023-01-30T11:26:46.507Z,100809.25
2023-01-30T11:29:32.298Z,100809.50
2023-01-30T11:32:25.838Z,100821.63
2023-01-30T11:35:07.253Z,100823.16
2023-01-30T11:37:41.633Z,100815.28
2023-01-30T11:40:17.451Z,100836.28
2023-01-30T11:42:46.712Z,100831.34
2023-01-30T11:45:17.855Z,100833.16
2023-01-30T11:47:57.926Z,100846.81
2023-01-30T11:50:43.162Z,100847.31
2023-01-30T11:53:30.145Z,100844.91
2023-01-30T11:56:05.685Z,100846.91
2023-01-30T11:58:38.751Z,100843.53
2023-01-30T12:01:05.583Z,100854.31
2023-01-30T12:03:34.045Z,100859.78
2023-01-30T12:06:00.464Z,100871.88
2023-01-30T12:08:43.273Z,100862.19
2023-01-30T12:11:27.932Z,100858.31
2023-01-30T12:13:59.659Z,100853.66
2023-01-30T12:16:53.962Z,100832.78
2023-01-30T12:19:55.777Z,100832.50
2023-01-30T12:22:32.239Z,100831.91
2023-01-30T12:25:01.344Z,100817.94
2023-01-30T12:27:44.541Z,100821.47
2023-01-30T12:30:20.388Z,100805.38
2023-01-30T12:32:47.064Z,100792.91
2023-01-30T12:35:18.250Z,100793.28
2023-01-30T12:38:09.302Z,100797.38
2023-01-30T12:40:38.532Z,100803.09
2023-01-30T12:43:33.256Z,100809.66
2023-01-30T12:46:27.528Z,100811.75
2023-01-30T12:49:12.336Z,100807.94
2023-01-30T12:52:20.576Z,100811.56
2023-01-30T12:55:45.499Z,100810.81
2023-01-30T12:58:20.278Z,100815.19
2023-01-30T13:00:53.654Z,100815.28
2023-01-30T13:03:41.609Z,100828.38
2023-01-30T13:06:13.316Z,100809.47
2023-01-30T13:08:54.152Z,100823.69
2023-01-30T13:11:37.938Z,100826.94
2023-01-30T13:14:06.948Z,100826.63
2023-01-30T13:16:52.074Z,100821.22
2023-01-30T13:19:40.361Z,100824.41
2023-01-30T13:22:44.789Z,100821.75
2023-01-30T13:25:36.750Z,100822.72
2023-01-30T13:28:16.239Z,100811.53
2023-01-30T13:30:44.630Z,100822.53
2023-01-30T13:33:15.880Z,100826.06
2023-01-30T13:35:47.495Z,100821.88
2023-01-30T13:38:24.474Z,100825.94
2023-01-30T13:40:55.352Z,100820.63
2023-01-30T13:43:28.887Z,100831.63
2023-01-30T13:45:58.624Z,100832.75
2023-01-30T13:48:49.530Z,100842.75
2023-01-30T13:51:26.944Z,100844.25
2023-01-30T13:54:25.748Z,100844.19
2023-01-30T13:57:01.943Z,100856.28
2023-01-30T13:59:52.695Z,100852.66
2023-01-30T14:02:24.685Z,100845.72
2023-01-30T14:04:58.244Z,100827.38
2023-01-30T14:07:30.838Z,100842.59
2023-01-30T14:10:08.961Z,100845.72
2023-01-30T14:12:37.439Z,100844.19
2023-01-30T14:15:19.504Z,100843.81
2023-01-30T14:18:00.693Z,100842.50
2023-01-30T14:20:29.872Z,100836.69
2023-01-30T14:22:59.048Z,100849.00
2023-01-30T14:25:25.405Z,100855.53
2023-01-30T14:27:53.670Z,100873.09
2023-01-30T14:30:32.013Z,100878.41
2023-01-30T14:33:02.831Z,100873.34
2023-01-30T14:35:31.341Z,100899.59
2023-01-30T14:38:10.104Z,100908.19
2023-01-30T14:40:39.402Z,100909.03
2023-01-30T14:43:11.719Z,100920.66
2023-01-30T14:45:47.238Z,100908.13
2023-01-30T14:48:33.412Z,100915.34
2023-01-30T14:51:18.519Z,100918.09
2023-01-30T14:53:53.097Z,100928.56
2023-01-30T14:56:33.484Z,100927.69
2023-01-30T14:59:05.060Z,100939.47
2023-01-30T15:02:09.708Z,100953.38
2023-01-30T15:04:49.042Z,100966.09
2023-01-30T15:07:49.640Z,100969.03
2023-01-30T15:10:46.934Z,100974.66
2023-01-30T15:13:41.122Z,100989.75
2023-01-30T15:16:17.469Z,100984.53
2023-01-30T15:19:16.782Z,100986.03
2023-01-30T15:22:22.456Z,100988.31
2023-01-30T15:25:05.373Z,100999.31
2023-01-30T15:27:40.869Z,100997.03
2023-01-30T15:30:16.731Z,100998.28
2023-01-30T15:32:44.771Z,101001.78
2023-01-30T15:35:11.033Z,101002.13
2023-01-30T15:37:46.500Z,101007.91
2023-01-30T15:40:16.129Z,101010.72
2023-01-30T15:42:53.609Z,101007.91
2023-01-30T15:45:39.915Z,101004.19
2023-01-30T15:48:41.755Z,100998.88
2023-01-30T15:51:12.933Z,101006.44
2023-01-30T15:53:43.161Z,101021.38
2023-01-30T15:56:15.703Z,101007.63
2023-01-30T15:58:44.158Z,101008.06
2023-01-30T16:01:16.875Z,101008.50
2023-01-30T16:03:43.463Z,101016.78
2023-01-30T16:06:28.784Z,101014.66
2023-01-30T16:09:01.327Z,101034.47
2023-01-30T16:11:34.977Z,101040.13
2023-01-30T16:14:01.318Z,101049.69
2023-01-30T16:16:28.457Z,101054.66
2023-01-30T16:18:59.151Z,101062.41
2023-01-30T16:21:31.541Z,101065.91
2023-01-30T16:24:02.854Z,101059.91
2023-01-30T16:26:29.965Z,101081.69
2023-01-30T16:29:11.875Z,101083.41
2023-01-30T16:31:40.939Z,101090.00
2023-01-30T16:34:26.865Z,101093.88
2023-01-30T16:36:54.786Z,101096.16
2023-01-30T16:39:33.726Z,101097.19
2023-01-30T16:42:01.954Z,101111.34
2023-01-30T16:44:31.096Z,101114.25
2023-01-30T16:47:23.655Z,101120.59
2023-01-30T16:49:50.800Z,101117.94
2023-01-30T16:52:22.418Z,101125.41
2023-01-30T16:54:54.221Z,101120.59
2023-01-30T16:57:28.464Z,101130.16
2023-01-30T16:59:55.524Z,101129.72
2023-01-30T17:02:33.403Z,101126.25
2023-01-30T17:05:17.398Z,101136.13
2023-01-30T17:07:43.994Z,101131.56
2023-01-30T17:10:39.086Z,101129.94
2023-01-30T17:13:27.545Z,101139.47
2023-01-30T17:15:54.391Z,101138.44
2023-01-30T17:18:20.798Z,101141.09
2023-01-30T17:20:51.044Z,101131.41
2023-01-30T17:23:20.712Z,101142.41
2023-01-30T17:25:48.637Z,101139.56
2023-01-30T17:28:21.200Z,101135.97
2023-01-30T17:30:49.093Z,101135.72
2023-01-30T17:33:15.555Z,101131.94
2023-01-30T17:35:41.984Z,101143.44
2023-01-30T17:38:10.320Z,101143.78
2023-01-30T17:40:37.760Z,101145.22
2023-01-30T17:43:04.906Z,101137.63
2023-01-30T17:45:31.300Z,101149.44
2023-01-30T17:47:57.649Z,101158.19
2023-01-30T17:50:24.128Z,101179.91
2023-01-30T17:52:50.429Z,101183.00
2023-01-30T17:55:17.418Z,101187.03
2023-01-30T17:57:47.427Z,101190.97
2023-01-30T18:00:16.635Z,101192.16
2023-01-30T18:02:43.365Z,101193.72
2023-01-30T18:05:10.166Z,101205.31
2023-01-30T18:07:36.977Z,101199.63
2023-01-30T18:10:03.774Z,101215.75
2023-01-30T18:12:30.137Z,101214.22
2023-01-30T18:14:56.520Z,101224.94
2023-01-30T18:17:23.711Z,101219.13
2023-01-30T18:19:50.253Z,101222.66
2023-01-30T18:22:16.557Z,101223.59
2023-01-30T18:24:42.909Z,101228.41
2023-01-30T18:27:09.260Z,101235.09
2023-01-30T18:29:35.760Z,101236.00
2023-01-30T18:32:05.610Z,101229.78
2023-01-30T18:34:33.775Z,101237.31
2023-01-30T18:37:00.162Z,101251.66
2023-01-30T18:39:26.585Z,101255.16
2023-01-30T18:41:53.050Z,101253.78
2023-01-30T18:44:19.436Z,101260.06
2023-01-30T18:46:46.535Z,101264.97
2023-01-30T18:49:12.906Z,101262.22
2023-01-30T18:51:40.390Z,101273.19
2023-01-30T18:54:06.775Z,101277.50
2023-01-30T18:56:36.008Z,101274.13
2023-01-30T18:59:05.051Z,101272.50
2023-01-30T19:01:38.480Z,101278.50
2023-01-30T19:04:07.426Z,101271.75
2023-01-30T19:06:36.479Z,101283.50
2023-01-30T19:09:03.511Z,101266.50
2023-01-30T19:11:48.536Z,101263.22
2023-01-30T19:14:15.329Z,101269.31
2023-01-30T19:16:41.821Z,101277.88
2023-01-30T19:19:09.241Z,101276.84
2023-01-30T19:21:36.438Z,101296.09
2023-01-30T19:24:07.080Z,101291.22
2023-01-30T19:26:34.169Z,101292.50
2023-01-30T19:29:00.608Z,101295.78
2023-01-30T19:31:27.059Z,101299.44
2023-01-30T19:33:56.376Z,101295.78
2023-01-30T19:36:25.323Z,101306.19
2023-01-30T19:38:52.424Z,101311.19
2023-01-30T19:41:24.459Z,101313.09
2023-01-30T19:43:52.687Z,101304.56
2023-01-30T19:46:19.322Z,101317.78
2023-01-30T19:48:47.230Z,101320.91
2023-01-30T19:51:34.463Z,101337.41
2023-01-30T19:54:06.834Z,101331.03
2023-01-30T19:56:33.467Z,101328.66
2023-01-30T19:59:01.077Z,101329.41
2023-01-30T20:01:30.898Z,101338.41
2023-01-30T20:03:57.728Z,101339.97
2023-01-30T20:06:29.275Z,101348.75
2023-01-30T20:08:59.839Z,101358.44
2023-01-30T20:11:26.508Z,101352.97
2023-01-30T20:13:53.393Z,101347.03
2023-01-30T20:16:25.179Z,101341.28
2023-01-30T20:18:57.756Z,101347.38
2023-01-30T20:21:25.658Z,101356.91
2023-01-30T20:23:52.956Z,101345.47
2023-01-30T20:26:24.846Z,101354.25
2023-01-30T20:28:51.645Z,101357.84
2023-01-30T20:31:21.419Z,101362.75
2023-01-30T20:33:48.308Z,101369.81
2023-01-30T20:36:18.612Z,101375.38
2023-01-30T20:38:46.949Z,101369.88
2023-01-30T20:41:15.937Z,101374.59
2023-01-30T20:43:45.054Z,101374.19
2023-01-30T20:46:14.567Z,101384.53
2023-01-30T20:48:41.630Z,101394.31
2023-01-30T20:51:16.252Z,101393.22
2023-01-30T20:53:49.044Z,101395.25
2023-01-30T20:56:15.524Z,101398.56
2023-01-30T20:58:41.873Z,101397.84
2023-01-30T21:01:17.680Z,101403.81
2023-01-30T21:03:50.334Z,101402.69
2023-01-30T21:06:42.724Z,101402.38
2023-01-30T21:09:07.656Z,101404.00
2023-01-30T21:11:34.226Z,101390.44
2023-01-30T21:14:00.946Z,101410.19
2023-01-30T21:16:29.233Z,101416.41
2023-01-30T21:19:00.167Z,101420.25
2023-01-30T21:21:36.548Z,101422.03
2023-01-30T21:24:07.367Z,101429.41
2023-01-30T21:26:38.071Z,101435.84
2023-01-30T21:29:06.264Z,101441.75
2023-01-30T21:31:37.501Z,101431.84
2023-01-30T21:34:05.632Z,101439.59
2023-01-30T21:36:32.305Z,101455.56
2023-01-30T21:39:17.014Z,101459.78
2023-01-30T21:41:51.013Z,101460.25
2023-01-30T21:44:24.958Z,101464.09
2023-01-30T21:46:51.366Z,101471.69
2023-01-30T21:49:18.841Z,101473.22
2023-01-30T21:51:46.950Z,101484.59
2023-01-30T21:54:14.143Z,101488.72
2023-01-30T21:56:41.180Z,101487.84
2023-01-30T21:59:07.817Z,101489.59
2023-01-30T22:01:36.516Z,101494.75
2023-01-30T22:04:05.197Z,101504.16
2023-01-30T22:06:31.581Z,101499.59
2023-01-30T22:08:59.925Z,101514.06
2023-01-30T22:11:28.173Z,101508.91
2023-01-30T22:13:54.906Z,101520.09
2023-01-30T22:16:24.252Z,101518.78
2023-01-30T22:18:58.941Z,101526.41
2023-01-30T22:21:28.015Z,101524.88
2023-01-30T22:23:55.521Z,101524.13
2023-01-30T22:26:24.153Z,101526.03
2023-01-30T22:28:58.115Z,101516.50
2023-01-30T22:31:26.108Z,101531.34
2023-01-30T22:33:55.025Z,101522.09
2023-01-30T22:36:26.957Z,101525.06
2023-01-30T22:38:53.315Z,101516.22
2023-01-30T22:41:24.150Z,101531.47
2023-01-30T22:43:54.723Z,101535.94
2023-01-30T22:46:23.694Z,101530.13
2023-01-30T22:48:50.053Z,101522.22
2023-01-30T22:51:16.427Z,101529.13
2023-01-30T22:53:47.961Z,101533.00
2023-01-30T22:56:21.402Z,101535.94
2023-01-30T22:58:48.477Z,101536.69
2023-01-30T23:01:16.717Z,101532.19
2023-01-30T23:03:44.199Z,101538.41
2023-01-30T23:06:13.982Z,101537.56
2023-01-30T23:08:44.257Z,101535.00
2023-01-30T23:11:15.732Z,101533.28
2023-01-30T23:13:44.877Z,101542.34
2023-01-30T23:16:12.386Z,101547.75
2023-01-30T23:18:57.100Z,101545.25
2023-01-30T23:21:32.575Z,101549.63
2023-01-30T23:24:01.337Z,101544.59
2023-01-30T23:26:30.781Z,101545.44
2023-01-30T23:28:57.546Z,101537.81
2023-01-30T23:31:25.678Z,101540.47
2023-01-30T23:33:54.565Z,101541.28
2023-01-30T23:36:21.558Z,101535.31
2023-01-30T23:38:52.876Z,101532.66
2023-01-30T23:41:26.113Z,101535.38
2023-01-30T23:43:53.245Z,101534.88
2023-01-30T23:46:19.663Z,101550.03
2023-01-30T23:48:48.643Z,101538.22
2023-01-30T23:51:17.581Z,101546.19
2023-01-30T23:53:44.963Z,101543.47
2023-01-30T23:56:12.362Z,101540.28
2023-01-30T23:58:38.775Z,101545.41
